sensor_id;sensor_type;location;lat;lon;timestamp;P1;durP1;ratioP1;P2;durP2;ratioP2
36009;SDS011;22076;52.182;5.404;2023-08-21T00:02:07;7.28;;;2.20;;
36009;SDS011;22076;52.182;5.404;2023-08-21T00:04:34;6.10;;;2.47;;
36009;SDS011;22076;52.182;5.404;2023-08-21T00:07:00;5.95;;;2.20;;
36009;SDS011;22076;52.182;5.404;2023-08-21T00:09:27;6.38;;;2.47;;
36009;SDS011;22076;52.182;5.404;2023-08-21T00:11:54;4.75;;;2.08;;
36009;SDS011;22076;52.182;5.404;2023-08-21T00:14:20;3.90;;;1.70;;
36009;SDS011;22076;52.182;5.404;2023-08-21T00:16:48;2.83;;;1.60;;
36009;SDS011;22076;52.182;5.404;2023-08-21T00:19:15;5.10;;;2.13;;
36009;SDS011;22076;52.182;5.404;2023-08-21T00:21:41;5.65;;;2.20;;
36009;SDS011;22076;52.182;5.404;2023-08-21T00:24:08;4.03;;;1.90;;
36009;SDS011;22076;52.182;5.404;2023-08-21T00:26:34;6.45;;;2.60;;
36009;SDS011;22076;52.182;5.404;2023-08-21T00:29:01;5.65;;;2.20;;
36009;SDS011;22076;52.182;5.404;2023-08-21T00:31:28;5.95;;;2.53;;
36009;SDS011;22076;52.182;5.404;2023-08-21T00:33:56;7.03;;;2.13;;
36009;SDS011;22076;52.182;5.404;2023-08-21T00:36:22;7.13;;;2.50;;
36009;SDS011;22076;52.182;5.404;2023-08-21T00:38:49;2.90;;;1.58;;
36009;SDS011;22076;52.182;5.404;2023-08-21T00:41:15;6.47;;;2.20;;
36009;SDS011;22076;52.182;5.404;2023-08-21T00:43:42;3.38;;;1.92;;
36009;SDS011;22076;52.182;5.404;2023-08-21T00:46:08;5.78;;;2.53;;
36009;SDS011;22076;52.182;5.404;2023-08-21T00:48:35;4.53;;;2.45;;
36009;SDS011;22076;52.182;5.404;2023-08-21T00:51:03;5.20;;;1.95;;
36009;SDS011;22076;52.182;5.404;2023-08-21T00:53:31;5.40;;;2.33;;
36009;SDS011;22076;52.182;5.404;2023-08-21T00:55:58;5.15;;;1.60;;
36009;SDS011;22076;52.182;5.404;2023-08-21T00:58:25;5.35;;;1.75;;
36009;SDS011;22076;52.182;5.404;2023-08-21T01:00:51;6.60;;;1.98;;
36009;SDS011;22076;52.182;5.404;2023-08-21T01:03:18;8.18;;;2.30;;
36009;SDS011;22076;52.182;5.404;2023-08-21T01:05:45;3.22;;;1.88;;
36009;SDS011;22076;52.182;5.404;2023-08-21T01:08:14;5.32;;;1.70;;
36009;SDS011;22076;52.182;5.404;2023-08-21T01:10:45;7.45;;;2.10;;
36009;SDS011;22076;52.182;5.404;2023-08-21T01:13:22;3.97;;;2.42;;
36009;SDS011;22076;52.182;5.404;2023-08-21T01:15:56;8.75;;;2.65;;
36009;SDS011;22076;52.182;5.404;2023-08-21T01:18:23;5.38;;;2.65;;
36009;SDS011;22076;52.182;5.404;2023-08-21T01:20:51;8.45;;;2.90;;
36009;SDS011;22076;52.182;5.404;2023-08-21T01:23:30;4.35;;;1.58;;
36009;SDS011;22076;52.182;5.404;2023-08-21T01:25:57;5.95;;;2.55;;
36009;SDS011;22076;52.182;5.404;2023-08-21T01:28:24;5.35;;;2.20;;
36009;SDS011;22076;52.182;5.404;2023-08-21T01:30:51;3.92;;;2.10;;
36009;SDS011;22076;52.182;5.404;2023-08-21T01:33:23;4.15;;;2.40;;
36009;SDS011;22076;52.182;5.404;2023-08-21T01:35:51;6.63;;;2.65;;
36009;SDS011;22076;52.182;5.404;2023-08-21T01:38:17;5.43;;;1.98;;
36009;SDS011;22076;52.182;5.404;2023-08-21T01:40:47;4.50;;;2.08;;
36009;SDS011;22076;52.182;5.404;2023-08-21T01:43:14;4.30;;;1.88;;
36009;SDS011;22076;52.182;5.404;2023-08-21T01:45:41;4.28;;;2.30;;
36009;SDS011;22076;52.182;5.404;2023-08-21T01:48:07;5.10;;;2.40;;
36009;SDS011;22076;52.182;5.404;2023-08-21T01:50:34;7.38;;;2.80;;
36009;SDS011;22076;52.182;5.404;2023-08-21T01:53:00;3.85;;;2.10;;
36009;SDS011;22076;52.182;5.404;2023-08-21T01:55:27;4.35;;;2.40;;
36009;SDS011;22076;52.182;5.404;2023-08-21T01:57:55;5.45;;;2.20;;
36009;SDS011;22076;52.182;5.404;2023-08-21T02:00:21;7.13;;;2.60;;
36009;SDS011;22076;52.182;5.404;2023-08-21T02:02:48;7.85;;;2.60;;
36009;SDS011;22076;52.182;5.404;2023-08-21T02:05:14;4.70;;;2.47;;
36009;SDS011;22076;52.182;5.404;2023-08-21T02:07:41;5.22;;;2.67;;
36009;SDS011;22076;52.182;5.404;2023-08-21T02:10:08;6.65;;;2.65;;
36009;SDS011;22076;52.182;5.404;2023-08-21T02:12:35;6.88;;;2.78;;
36009;SDS011;22076;52.182;5.404;2023-08-21T02:15:03;4.57;;;1.85;;
36009;SDS011;22076;52.182;5.404;2023-08-21T02:17:31;4.70;;;2.47;;
36009;SDS011;22076;52.182;5.404;2023-08-21T02:19:57;12.25;;;3.40;;
36009;SDS011;22076;52.182;5.404;2023-08-21T02:22:24;7.22;;;2.67;;
36009;SDS011;22076;52.182;5.404;2023-08-21T02:24:51;8.93;;;3.25;;
36009;SDS011;22076;52.182;5.404;2023-08-21T02:27:17;4.15;;;2.42;;
36009;SDS011;22076;52.182;5.404;2023-08-21T02:29:44;5.72;;;1.80;;
36009;SDS011;22076;52.182;5.404;2023-08-21T02:32:12;4.53;;;2.08;;
36009;SDS011;22076;52.182;5.404;2023-08-21T02:34:38;5.05;;;2.33;;
36009;SDS011;22076;52.182;5.404;2023-08-21T02:37:05;5.28;;;2.78;;
36009;SDS011;22076;52.182;5.404;2023-08-21T02:39:31;7.65;;;2.45;;
36009;SDS011;22076;52.182;5.404;2023-08-21T02:41:58;5.28;;;1.77;;
36009;SDS011;22076;52.182;5.404;2023-08-21T02:44:25;5.32;;;2.30;;
36009;SDS011;22076;52.182;5.404;2023-08-21T02:46:52;6.05;;;2.30;;
36009;SDS011;22076;52.182;5.404;2023-08-21T02:49:20;6.22;;;2.45;;
36009;SDS011;22076;52.182;5.404;2023-08-21T02:51:46;8.68;;;2.63;;
36009;SDS011;22076;52.182;5.404;2023-08-21T02:54:13;5.43;;;2.40;;
36009;SDS011;22076;52.182;5.404;2023-08-21T02:56:40;7.07;;;3.17;;
36009;SDS011;22076;52.182;5.404;2023-08-21T02:59:06;4.63;;;2.05;;
36009;SDS011;22076;52.182;5.404;2023-08-21T03:01:33;8.57;;;2.75;;
36009;SDS011;22076;52.182;5.404;2023-08-21T03:04:00;5.30;;;3.20;;
36009;SDS011;22076;52.182;5.404;2023-08-21T03:06:28;1.80;;;1.30;;
36009;SDS011;22076;52.182;5.404;2023-08-21T03:08:54;6.28;;;2.15;;
36009;SDS011;22076;52.182;5.404;2023-08-21T03:11:21;5.82;;;2.83;;
36009;SDS011;22076;52.182;5.404;2023-08-21T03:13:48;3.40;;;1.58;;
36009;SDS011;22076;52.182;5.404;2023-08-21T03:16:14;5.25;;;2.45;;
36009;SDS011;22076;52.182;5.404;2023-08-21T03:18:53;9.88;;;2.33;;
36009;SDS011;22076;52.182;5.404;2023-08-21T03:21:21;6.30;;;2.50;;
36009;SDS011;22076;52.182;5.404;2023-08-21T03:23:50;6.35;;;2.22;;
36009;SDS011;22076;52.182;5.404;2023-08-21T03:26:17;7.30;;;2.08;;
36009;SDS011;22076;52.182;5.404;2023-08-21T03:28:44;3.33;;;1.58;;
36009;SDS011;22076;52.182;5.404;2023-08-21T03:31:11;5.72;;;2.13;;
36009;SDS011;22076;52.182;5.404;2023-08-21T03:33:37;4.93;;;1.90;;
36009;SDS011;22076;52.182;5.404;2023-08-21T03:36:04;3.92;;;2.10;;
36009;SDS011;22076;52.182;5.404;2023-08-21T03:38:31;7.90;;;2.95;;
36009;SDS011;22076;52.182;5.404;2023-08-21T03:40:59;5.47;;;2.70;;
36009;SDS011;22076;52.182;5.404;2023-08-21T03:43:25;9.73;;;2.38;;
36009;SDS011;22076;52.182;5.404;2023-08-21T03:45:52;10.48;;;3.25;;
36009;SDS011;22076;52.182;5.404;2023-08-21T03:48:19;8.35;;;2.88;;
36009;SDS011;22076;52.182;5.404;2023-08-21T03:50:45;4.72;;;1.77;;
36009;SDS011;22076;52.182;5.404;2023-08-21T03:53:12;5.15;;;2.20;;
36009;SDS011;22076;52.182;5.404;2023-08-21T03:55:38;5.80;;;2.15;;
36009;SDS011;22076;52.182;5.404;2023-08-21T03:58:06;3.15;;;1.73;;
36009;SDS011;22076;52.182;5.404;2023-08-21T04:00:33;4.38;;;2.10;;
36009;SDS011;22076;52.182;5.404;2023-08-21T04:02:59;5.00;;;1.85;;
36009;SDS011;22076;52.182;5.404;2023-08-21T04:05:26;2.80;;;1.30;;
36009;SDS011;22076;52.182;5.404;2023-08-21T04:07:53;4.75;;;2.53;;
36009;SDS011;22076;52.182;5.404;2023-08-21T04:10:19;8.63;;;2.65;;
36009;SDS011;22076;52.182;5.404;2023-08-21T04:12:46;5.70;;;2.50;;
36009;SDS011;22076;52.182;5.404;2023-08-21T04:15:14;6.18;;;2.60;;
36009;SDS011;22076;52.182;5.404;2023-08-21T04:17:40;3.85;;;2.40;;
36009;SDS011;22076;52.182;5.404;2023-08-21T04:20:07;3.15;;;2.17;;
36009;SDS011;22076;52.182;5.404;2023-08-21T04:22:34;5.45;;;3.13;;
36009;SDS011;22076;52.182;5.404;2023-08-21T04:25:01;7.57;;;4.05;;
36009;SDS011;22076;52.182;5.404;2023-08-21T04:27:27;3.35;;;2.10;;
36009;SDS011;22076;52.182;5.404;2023-08-21T04:29:54;4.50;;;2.35;;
36009;SDS011;22076;52.182;5.404;2023-08-21T04:32:22;5.38;;;2.50;;
36009;SDS011;22076;52.182;5.404;2023-08-21T04:34:49;30.08;;;9.98;;
36009;SDS011;22076;52.182;5.404;2023-08-21T04:37:15;5.90;;;2.70;;
36009;SDS011;22076;52.182;5.404;2023-08-21T04:39:42;10.68;;;3.22;;
36009;SDS011;22076;52.182;5.404;2023-08-21T04:42:10;7.18;;;2.97;;
36009;SDS011;22076;52.182;5.404;2023-08-21T04:44:37;7.10;;;2.97;;
36009;SDS011;22076;52.182;5.404;2023-08-21T04:47:18;6.82;;;2.67;;
36009;SDS011;22076;52.182;5.404;2023-08-21T04:49:47;5.82;;;2.97;;
36009;SDS011;22076;52.182;5.404;2023-08-21T04:52:14;4.00;;;1.98;;
36009;SDS011;22076;52.182;5.404;2023-08-21T04:54:40;6.00;;;2.97;;
36009;SDS011;22076;52.182;5.404;2023-08-21T04:57:07;6.25;;;2.45;;
36009;SDS011;22076;52.182;5.404;2023-08-21T04:59:34;5.00;;;3.20;;
36009;SDS011;22076;52.182;5.404;2023-08-21T05:02:00;7.15;;;2.60;;
36009;SDS011;22076;52.182;5.404;2023-08-21T05:04:27;5.70;;;3.40;;
36009;SDS011;22076;52.182;5.404;2023-08-21T05:06:55;8.00;;;3.42;;
36009;SDS011;22076;52.182;5.404;2023-08-21T05:09:22;7.85;;;3.22;;
36009;SDS011;22076;52.182;5.404;2023-08-21T05:11:48;4.78;;;2.95;;
36009;SDS011;22076;52.182;5.404;2023-08-21T05:14:15;4.28;;;1.92;;
36009;SDS011;22076;52.182;5.404;2023-08-21T05:16:43;8.60;;;3.33;;
36009;SDS011;22076;52.182;5.404;2023-08-21T05:19:10;5.63;;;2.53;;
36009;SDS011;22076;52.182;5.404;2023-08-21T05:21:36;6.97;;;3.50;;
36009;SDS011;22076;52.182;5.404;2023-08-21T05:24:04;10.27;;;3.92;;
36009;SDS011;22076;52.182;5.404;2023-08-21T05:26:31;8.80;;;2.58;;
36009;SDS011;22076;52.182;5.404;2023-08-21T05:28:58;8.90;;;3.55;;
36009;SDS011;22076;52.182;5.404;2023-08-21T05:31:24;6.82;;;2.65;;
36009;SDS011;22076;52.182;5.404;2023-08-21T05:33:51;8.90;;;4.22;;
36009;SDS011;22076;52.182;5.404;2023-08-21T05:36:17;4.45;;;3.00;;
36009;SDS011;22076;52.182;5.404;2023-08-21T05:38:44;7.78;;;3.45;;
36009;SDS011;22076;52.182;5.404;2023-08-21T05:41:14;9.90;;;3.90;;
36009;SDS011;22076;52.182;5.404;2023-08-21T05:43:41;6.88;;;2.85;;
36009;SDS011;22076;52.182;5.404;2023-08-21T05:46:07;5.93;;;3.75;;
36009;SDS011;22076;52.182;5.404;2023-08-21T05:48:34;4.32;;;3.00;;
36009;SDS011;22076;52.182;5.404;2023-08-21T05:51:04;10.52;;;3.67;;
36009;SDS011;22076;52.182;5.404;2023-08-21T05:53:31;5.68;;;3.28;;
36009;SDS011;22076;52.182;5.404;2023-08-21T05:55:57;8.20;;;3.50;;
36009;SDS011;22076;52.182;5.404;2023-08-21T05:58:25;10.02;;;4.10;;
36009;SDS011;22076;52.182;5.404;2023-08-21T06:00:55;8.48;;;4.03;;
36009;SDS011;22076;52.182;5.404;2023-08-21T06:03:22;6.97;;;3.60;;
36009;SDS011;22076;52.182;5.404;2023-08-21T06:05:49;6.15;;;2.35;;
36009;SDS011;22076;52.182;5.404;2023-08-21T06:08:15;8.20;;;4.53;;
36009;SDS011;22076;52.182;5.404;2023-08-21T06:10:43;11.82;;;5.00;;
36009;SDS011;22076;52.182;5.404;2023-08-21T06:13:10;6.68;;;3.25;;
36009;SDS011;22076;52.182;5.404;2023-08-21T06:15:38;11.82;;;4.40;;
36009;SDS011;22076;52.182;5.404;2023-08-21T06:18:04;41.58;;;10.98;;
36009;SDS011;22076;52.182;5.404;2023-08-21T06:20:31;15.98;;;6.43;;
36009;SDS011;22076;52.182;5.404;2023-08-21T06:22:57;13.68;;;4.95;;
36009;SDS011;22076;52.182;5.404;2023-08-21T06:25:24;5.35;;;3.03;;
36009;SDS011;22076;52.182;5.404;2023-08-21T06:27:51;16.05;;;4.90;;
36009;SDS011;22076;52.182;5.404;2023-08-21T06:30:17;10.60;;;5.13;;
36009;SDS011;22076;52.182;5.404;2023-08-21T06:32:45;4.68;;;2.53;;
36009;SDS011;22076;52.182;5.404;2023-08-21T06:35:12;3.53;;;2.05;;
36009;SDS011;22076;52.182;5.404;2023-08-21T06:37:39;5.43;;;3.10;;
36009;SDS011;22076;52.182;5.404;2023-08-21T06:40:06;1.52;;;1.20;;
36009;SDS011;22076;52.182;5.404;2023-08-21T06:42:33;10.27;;;4.03;;
36009;SDS011;22076;52.182;5.404;2023-08-21T06:45:00;4.18;;;2.53;;
36009;SDS011;22076;52.182;5.404;2023-08-21T06:47:28;6.10;;;2.88;;
36009;SDS011;22076;52.182;5.404;2023-08-21T06:49:56;4.95;;;3.08;;
36009;SDS011;22076;52.182;5.404;2023-08-21T06:52:23;8.68;;;3.50;;
36009;SDS011;22076;52.182;5.404;2023-08-21T06:54:51;12.45;;;3.75;;
36009;SDS011;22076;52.182;5.404;2023-08-21T06:57:17;9.65;;;2.88;;
36009;SDS011;22076;52.182;5.404;2023-08-21T06:59:44;12.38;;;4.30;;
36009;SDS011;22076;52.182;5.404;2023-08-21T07:02:10;6.85;;;2.55;;
36009;SDS011;22076;52.182;5.404;2023-08-21T07:04:37;7.43;;;3.60;;
36009;SDS011;22076;52.182;5.404;2023-08-21T07:07:05;4.53;;;2.00;;
36009;SDS011;22076;52.182;5.404;2023-08-21T07:09:32;10.77;;;3.58;;
36009;SDS011;22076;52.182;5.404;2023-08-21T07:11:58;4.85;;;1.60;;
36009;SDS011;22076;52.182;5.404;2023-08-21T07:14:26;8.82;;;2.72;;
36009;SDS011;22076;52.182;5.404;2023-08-21T07:16:54;4.00;;;1.55;;
36009;SDS011;22076;52.182;5.404;2023-08-21T07:19:20;5.53;;;3.40;;
36009;SDS011;22076;52.182;5.404;2023-08-21T07:21:47;4.55;;;1.55;;
36009;SDS011;22076;52.182;5.404;2023-08-21T07:24:15;6.93;;;2.03;;
36009;SDS011;22076;52.182;5.404;2023-08-21T07:26:42;5.28;;;1.17;;
36009;SDS011;22076;52.182;5.404;2023-08-21T07:29:18;4.30;;;1.00;;
36009;SDS011;22076;52.182;5.404;2023-08-21T07:31:45;3.60;;;1.38;;
36009;SDS011;22076;52.182;5.404;2023-08-21T07:34:11;6.70;;;1.73;;
36009;SDS011;22076;52.182;5.404;2023-08-21T07:36:38;6.68;;;2.15;;
36009;SDS011;22076;52.182;5.404;2023-08-21T07:39:05;6.05;;;1.35;;
36009;SDS011;22076;52.182;5.404;2023-08-21T07:41:37;9.00;;;2.60;;
36009;SDS011;22076;52.182;5.404;2023-08-21T07:44:03;3.40;;;1.07;;
36009;SDS011;22076;52.182;5.404;2023-08-21T07:46:30;1.70;;;1.10;;
36009;SDS011;22076;52.182;5.404;2023-08-21T07:48:56;2.75;;;1.23;;
36009;SDS011;22076;52.182;5.404;2023-08-21T07:51:23;4.05;;;1.58;;
36009;SDS011;22076;52.182;5.404;2023-08-21T07:53:50;5.25;;;1.48;;
36009;SDS011;22076;52.182;5.404;2023-08-21T07:56:16;2.22;;;1.35;;
36009;SDS011;22076;52.182;5.404;2023-08-21T07:58:44;1.65;;;0.90;;
36009;SDS011;22076;52.182;5.404;2023-08-21T08:01:11;2.67;;;1.23;;
36009;SDS011;22076;52.182;5.404;2023-08-21T08:03:37;3.88;;;1.08;;
36009;SDS011;22076;52.182;5.404;2023-08-21T08:06:04;3.33;;;1.30;;
36009;SDS011;22076;52.182;5.404;2023-08-21T08:08:30;3.85;;;1.35;;
36009;SDS011;22076;52.182;5.404;2023-08-21T08:11:00;3.13;;;1.20;;
36009;SDS011;22076;52.182;5.404;2023-08-21T08:13:27;3.67;;;1.20;;
36009;SDS011;22076;52.182;5.404;2023-08-21T08:15:55;4.47;;;1.42;;
36009;SDS011;22076;52.182;5.404;2023-08-21T08:18:22;1.98;;;1.00;;
36009;SDS011;22076;52.182;5.404;2023-08-21T08:20:49;3.72;;;1.13;;
36009;SDS011;22076;52.182;5.404;2023-08-21T08:23:15;5.15;;;1.60;;
36009;SDS011;22076;52.182;5.404;2023-08-21T08:25:42;2.88;;;1.08;;
36009;SDS011;22076;52.182;5.404;2023-08-21T08:28:09;3.70;;;1.42;;
36009;SDS011;22076;52.182;5.404;2023-08-21T08:30:35;1.88;;;1.23;;
36009;SDS011;22076;52.182;5.404;2023-08-21T08:33:03;3.75;;;1.00;;
36009;SDS011;22076;52.182;5.404;2023-08-21T08:35:30;7.13;;;1.38;;
36009;SDS011;22076;52.182;5.404;2023-08-21T08:37:56;7.50;;;1.45;;
36009;SDS011;22076;52.182;5.404;2023-08-21T08:40:23;5.03;;;1.50;;
36009;SDS011;22076;52.182;5.404;2023-08-21T08:42:49;2.80;;;1.40;;
36009;SDS011;22076;52.182;5.404;2023-08-21T08:45:16;4.95;;;1.20;;
36009;SDS011;22076;52.182;5.404;2023-08-21T08:50:17;2.65;;;1.13;;
36009;SDS011;22076;52.182;5.404;2023-08-21T08:52:44;5.80;;;1.23;;
36009;SDS011;22076;52.182;5.404;2023-08-21T08:55:10;8.05;;;1.70;;
36009;SDS011;22076;52.182;5.404;2023-08-21T08:57:37;3.75;;;1.50;;
36009;SDS011;22076;52.182;5.404;2023-08-21T09:00:04;10.10;;;1.80;;
36009;SDS011;22076;52.182;5.404;2023-08-21T09:02:31;2.50;;;0.90;;
36009;SDS011;22076;52.182;5.404;2023-08-21T09:04:58;5.43;;;1.58;;
36009;SDS011;22076;52.182;5.404;2023-08-21T09:07:26;2.55;;;1.02;;
36009;SDS011;22076;52.182;5.404;2023-08-21T09:09:53;5.10;;;1.75;;
36009;SDS011;22076;52.182;5.404;2023-08-21T09:12:19;3.17;;;1.17;;
36009;SDS011;22076;52.182;5.404;2023-08-21T09:14:46;4.75;;;1.48;;
36009;SDS011;22076;52.182;5.404;2023-08-21T09:17:13;4.28;;;1.48;;
36009;SDS011;22076;52.182;5.404;2023-08-21T09:19:40;2.78;;;1.08;;
36009;SDS011;22076;52.182;5.404;2023-08-21T09:22:10;4.45;;;1.02;;
36009;SDS011;22076;52.182;5.404;2023-08-21T09:24:39;2.35;;;0.98;;
36009;SDS011;22076;52.182;5.404;2023-08-21T09:27:12;2.75;;;1.38;;
36009;SDS011;22076;52.182;5.404;2023-08-21T09:29:40;2.17;;;1.30;;
36009;SDS011;22076;52.182;5.404;2023-08-21T09:32:07;2.58;;;1.15;;
36009;SDS011;22076;52.182;5.404;2023-08-21T09:34:34;2.72;;;1.10;;
36009;SDS011;22076;52.182;5.404;2023-08-21T09:37:01;4.60;;;1.33;;
36009;SDS011;22076;52.182;5.404;2023-08-21T09:39:32;2.50;;;0.95;;
36009;SDS011;22076;52.182;5.404;2023-08-21T09:42:01;2.50;;;0.98;;
36009;SDS011;22076;52.182;5.404;2023-08-21T09:44:28;2.55;;;1.27;;
36009;SDS011;22076;52.182;5.404;2023-08-21T09:46:55;2.25;;;1.30;;
36009;SDS011;22076;52.182;5.404;2023-08-21T09:49:21;3.28;;;1.00;;
36009;SDS011;22076;52.182;5.404;2023-08-21T09:51:48;3.78;;;1.05;;
36009;SDS011;22076;52.182;5.404;2023-08-21T09:54:15;3.92;;;1.55;;
36009;SDS011;22076;52.182;5.404;2023-08-21T09:56:42;2.78;;;0.98;;
36009;SDS011;22076;52.182;5.404;2023-08-21T09:59:10;2.13;;;1.20;;
36009;SDS011;22076;52.182;5.404;2023-08-21T10:01:37;4.80;;;1.30;;
36009;SDS011;22076;52.182;5.404;2023-08-21T10:04:04;3.70;;;1.02;;
36009;SDS011;22076;52.182;5.404;2023-08-21T10:06:31;5.03;;;1.10;;
36009;SDS011;22076;52.182;5.404;2023-08-21T10:08:59;3.53;;;1.10;;
36009;SDS011;22076;52.182;5.404;2023-08-21T10:11:26;2.70;;;0.90;;
36009;SDS011;22076;52.182;5.404;2023-08-21T10:13:54;7.53;;;2.28;;
36009;SDS011;22076;52.182;5.404;2023-08-21T10:16:23;3.90;;;1.10;;
36009;SDS011;22076;52.182;5.404;2023-08-21T10:18:51;2.72;;;1.13;;
36009;SDS011;22076;52.182;5.404;2023-08-21T10:21:18;4.57;;;1.25;;
36009;SDS011;22076;52.182;5.404;2023-08-21T10:23:46;6.22;;;2.15;;
36009;SDS011;22076;52.182;5.404;2023-08-21T10:26:14;4.93;;;1.40;;
36009;SDS011;22076;52.182;5.404;2023-08-21T10:28:42;8.70;;;1.80;;
36009;SDS011;22076;52.182;5.404;2023-08-21T10:31:29;8.25;;;1.75;;
36009;SDS011;22076;52.182;5.404;2023-08-21T10:33:57;4.95;;;1.08;;
36009;SDS011;22076;52.182;5.404;2023-08-21T10:37:02;3.58;;;1.17;;
36009;SDS011;22076;52.182;5.404;2023-08-21T10:39:33;3.05;;;1.20;;
36009;SDS011;22076;52.182;5.404;2023-08-21T10:42:03;4.15;;;1.83;;
36009;SDS011;22076;52.182;5.404;2023-08-21T10:44:46;9.93;;;1.67;;
36009;SDS011;22076;52.182;5.404;2023-08-21T10:47:31;4.90;;;1.23;;
36009;SDS011;22076;52.182;5.404;2023-08-21T10:50:00;4.85;;;1.45;;
36009;SDS011;22076;52.182;5.404;2023-08-21T10:52:29;4.22;;;1.40;;
36009;SDS011;22076;52.182;5.404;2023-08-21T10:54:56;3.47;;;1.25;;
36009;SDS011;22076;52.182;5.404;2023-08-21T10:57:25;4.40;;;1.42;;
36009;SDS011;22076;52.182;5.404;2023-08-21T10:59:56;5.15;;;1.45;;
36009;SDS011;22076;52.182;5.404;2023-08-21T11:02:24;3.33;;;1.10;;
36009;SDS011;22076;52.182;5.404;2023-08-21T11:04:52;2.75;;;0.93;;
36009;SDS011;22076;52.182;5.404;2023-08-21T11:07:19;2.75;;;1.15;;
36009;SDS011;22076;52.182;5.404;2023-08-21T11:09:46;3.40;;;1.15;;
36009;SDS011;22076;52.182;5.404;2023-08-21T11:12:14;4.15;;;1.60;;
36009;SDS011;22076;52.182;5.404;2023-08-21T11:14:42;2.60;;;1.13;;
36009;SDS011;22076;52.182;5.404;2023-08-21T11:17:10;3.17;;;1.25;;
36009;SDS011;22076;52.182;5.404;2023-08-21T11:19:38;2.25;;;0.95;;
36009;SDS011;22076;52.182;5.404;2023-08-21T11:22:06;1.98;;;0.93;;
36009;SDS011;22076;52.182;5.404;2023-08-21T11:24:40;4.28;;;1.30;;
36009;SDS011;22076;52.182;5.404;2023-08-21T11:27:08;4.15;;;1.30;;
36009;SDS011;22076;52.182;5.404;2023-08-21T11:29:38;2.33;;;0.90;;
36009;SDS011;22076;52.182;5.404;2023-08-21T11:32:08;3.58;;;1.20;;
36009;SDS011;22076;52.182;5.404;2023-08-21T11:34:35;2.38;;;1.05;;
36009;SDS011;22076;52.182;5.404;2023-08-21T11:37:03;4.47;;;1.25;;
36009;SDS011;22076;52.182;5.404;2023-08-21T11:39:40;2.50;;;0.98;;
36009;SDS011;22076;52.182;5.404;2023-08-21T11:42:12;1.20;;;0.90;;
36009;SDS011;22076;52.182;5.404;2023-08-21T11:44:39;4.22;;;1.00;;
36009;SDS011;22076;52.182;5.404;2023-08-21T11:47:10;2.22;;;0.95;;
36009;SDS011;22076;52.182;5.404;2023-08-21T11:49:37;3.10;;;1.13;;
36009;SDS011;22076;52.182;5.404;2023-08-21T11:52:04;3.30;;;0.80;;
36009;SDS011;22076;52.182;5.404;2023-08-21T11:54:34;1.77;;;1.00;;
36009;SDS011;22076;52.182;5.404;2023-08-21T11:57:05;2.72;;;0.95;;
36009;SDS011;22076;52.182;5.404;2023-08-21T11:59:32;1.98;;;0.80;;
36009;SDS011;22076;52.182;5.404;2023-08-21T12:01:58;4.95;;;1.23;;
36009;SDS011;22076;52.182;5.404;2023-08-21T12:04:26;2.50;;;0.88;;
36009;SDS011;22076;52.182;5.404;2023-08-21T12:06:52;3.47;;;1.05;;
36009;SDS011;22076;52.182;5.404;2023-08-21T12:09:19;1.10;;;0.77;;
36009;SDS011;22076;52.182;5.404;2023-08-21T12:11:45;3.80;;;0.60;;
36009;SDS011;22076;52.182;5.404;2023-08-21T12:14:13;4.28;;;0.95;;
36009;SDS011;22076;52.182;5.404;2023-08-21T12:16:40;4.57;;;0.93;;
36009;SDS011;22076;52.182;5.404;2023-08-21T12:19:07;1.83;;;0.80;;
36009;SDS011;22076;52.182;5.404;2023-08-21T12:21:34;2.38;;;0.90;;
36009;SDS011;22076;52.182;5.404;2023-08-21T12:24:03;2.50;;;0.90;;
36009;SDS011;22076;52.182;5.404;2023-08-21T12:26:30;2.72;;;0.95;;
36009;SDS011;22076;52.182;5.404;2023-08-21T12:28:57;1.95;;;0.88;;
36009;SDS011;22076;52.182;5.404;2023-08-21T12:31:30;3.35;;;1.13;;
36009;SDS011;22076;52.182;5.404;2023-08-21T12:33:57;1.35;;;0.75;;
36009;SDS011;22076;52.182;5.404;2023-08-21T12:36:24;3.55;;;1.08;;
36009;SDS011;22076;52.182;5.404;2023-08-21T12:38:51;2.05;;;0.80;;
36009;SDS011;22076;52.182;5.404;2023-08-21T12:41:17;1.73;;;0.80;;
36009;SDS011;22076;52.182;5.404;2023-08-21T12:43:45;1.65;;;0.77;;
36009;SDS011;22076;52.182;5.404;2023-08-21T12:46:12;1.60;;;0.80;;
36009;SDS011;22076;52.182;5.404;2023-08-21T12:48:40;1.63;;;0.63;;
36009;SDS011;22076;52.182;5.404;2023-08-21T12:51:07;1.92;;;0.80;;
36009;SDS011;22076;52.182;5.404;2023-08-21T12:53:34;3.65;;;1.00;;
36009;SDS011;22076;52.182;5.404;2023-08-21T12:56:01;2.22;;;1.08;;
36009;SDS011;22076;52.182;5.404;2023-08-21T12:58:28;2.65;;;0.80;;
36009;SDS011;22076;52.182;5.404;2023-08-21T13:00:55;1.55;;;0.85;;
36009;SDS011;22076;52.182;5.404;2023-08-21T13:03:22;3.47;;;0.70;;
36009;SDS011;22076;52.182;5.404;2023-08-21T13:05:50;3.33;;;0.80;;
36009;SDS011;22076;52.182;5.404;2023-08-21T13:08:16;3.85;;;1.10;;
36009;SDS011;22076;52.182;5.404;2023-08-21T13:10:43;4.72;;;1.05;;
36009;SDS011;22076;52.182;5.404;2023-08-21T13:13:10;4.50;;;0.80;;
36009;SDS011;22076;52.182;5.404;2023-08-21T13:15:36;2.80;;;1.05;;
36009;SDS011;22076;52.182;5.404;2023-08-21T13:18:03;2.80;;;0.93;;
36009;SDS011;22076;52.182;5.404;2023-08-21T13:20:30;2.40;;;0.90;;
36009;SDS011;22076;52.182;5.404;2023-08-21T13:22:58;1.95;;;1.10;;
36009;SDS011;22076;52.182;5.404;2023-08-21T13:25:25;5.30;;;1.20;;
36009;SDS011;22076;52.182;5.404;2023-08-21T13:27:52;1.10;;;0.70;;
36009;SDS011;22076;52.182;5.404;2023-08-21T13:30:19;3.47;;;0.80;;
36009;SDS011;22076;52.182;5.404;2023-08-21T13:32:47;5.25;;;0.90;;
36009;SDS011;22076;52.182;5.404;2023-08-21T13:35:14;2.90;;;0.90;;
36009;SDS011;22076;52.182;5.404;2023-08-21T13:37:42;4.72;;;1.23;;
36009;SDS011;22076;52.182;5.404;2023-08-21T13:40:10;1.42;;;0.80;;
36009;SDS011;22076;52.182;5.404;2023-08-21T13:42:37;3.47;;;0.98;;
36009;SDS011;22076;52.182;5.404;2023-08-21T13:45:06;4.13;;;1.02;;
36009;SDS011;22076;52.182;5.404;2023-08-21T13:47:35;1.98;;;0.85;;
36009;SDS011;22076;52.182;5.404;2023-08-21T13:50:02;2.17;;;0.95;;
36009;SDS011;22076;52.182;5.404;2023-08-21T13:52:30;3.15;;;0.82;;
36009;SDS011;22076;52.182;5.404;2023-08-21T13:54:57;2.78;;;0.88;;
36009;SDS011;22076;52.182;5.404;2023-08-21T13:57:27;3.08;;;0.80;;
36009;SDS011;22076;52.182;5.404;2023-08-21T13:59:54;2.13;;;0.80;;
36009;SDS011;22076;52.182;5.404;2023-08-21T14:02:21;2.30;;;0.68;;
36009;SDS011;22076;52.182;5.404;2023-08-21T14:04:48;4.85;;;0.95;;
36009;SDS011;22076;52.182;5.404;2023-08-21T14:07:15;4.70;;;0.80;;
36009;SDS011;22076;52.182;5.404;2023-08-21T14:09:44;2.05;;;0.73;;
36009;SDS011;22076;52.182;5.404;2023-08-21T14:12:12;1.55;;;0.80;;
36009;SDS011;22076;52.182;5.404;2023-08-21T14:14:50;2.38;;;0.73;;
36009;SDS011;22076;52.182;5.404;2023-08-21T14:17:18;2.50;;;0.68;;
36009;SDS011;22076;52.182;5.404;2023-08-21T14:19:45;2.00;;;0.68;;
36009;SDS011;22076;52.182;5.404;2023-08-21T14:22:12;2.08;;;0.63;;
36009;SDS011;22076;52.182;5.404;2023-08-21T14:24:40;1.85;;;0.75;;
36009;SDS011;22076;52.182;5.404;2023-08-21T14:27:06;1.50;;;0.68;;
36009;SDS011;22076;52.182;5.404;2023-08-21T14:29:33;1.60;;;0.77;;
36009;SDS011;22076;52.182;5.404;2023-08-21T14:32:08;3.03;;;0.60;;
36009;SDS011;22076;52.182;5.404;2023-08-21T14:34:36;1.23;;;0.60;;
36009;SDS011;22076;52.182;5.404;2023-08-21T14:37:02;2.17;;;0.75;;
36009;SDS011;22076;52.182;5.404;2023-08-21T14:39:30;1.63;;;0.68;;
36009;SDS011;22076;52.182;5.404;2023-08-21T14:41:57;1.65;;;0.60;;
36009;SDS011;22076;52.182;5.404;2023-08-21T14:44:26;2.90;;;0.80;;
36009;SDS011;22076;52.182;5.404;2023-08-21T14:46:53;2.72;;;0.73;;
36009;SDS011;22076;52.182;5.404;2023-08-21T14:49:22;2.08;;;0.57;;
36009;SDS011;22076;52.182;5.404;2023-08-21T14:51:50;2.58;;;0.70;;
36009;SDS011;22076;52.182;5.404;2023-08-21T14:54:18;1.83;;;0.70;;